createdAt,value
2023-01-31T00:00:34.708Z,68.38
2023-01-31T00:03:02.881Z,68.70
2023-01-31T00:05:30.745Z,63.60
2023-01-31T00:07:58.504Z,69.30
2023-01-31T00:10:26.331Z,62.50
2023-01-31T00:12:54.186Z,68.55
2023-01-31T00:15:22.174Z,66.40
2023-01-31T00:17:50.114Z,70.30
2023-01-31T00:20:19.157Z,65.60
2023-01-31T00:22:47.082Z,64.53
2023-01-31T00:25:14.885Z,64.60
2023-01-31T00:27:42.824Z,66.22
2023-01-31T00:30:12.738Z,67.35
2023-01-31T00:32:40.554Z,68.55
2023-01-31T00:35:08.570Z,66.25
2023-01-31T00:37:36.928Z,66.75
2023-01-31T00:40:05.147Z,70.03
2023-01-31T00:42:32.979Z,67.28
2023-01-31T00:45:00.715Z,68.63
2023-01-31T00:47:28.647Z,65.70
2023-01-31T00:49:56.997Z,62.83
2023-01-31T00:52:24.866Z,63.10
2023-01-31T00:54:56.808Z,61.67
2023-01-31T00:57:24.614Z,63.25
2023-01-31T00:59:52.451Z,75.30
2023-01-31T01:02:20.475Z,66.40
2023-01-31T01:04:48.292Z,71.75
2023-01-31T01:07:16.226Z,68.13
2023-01-31T01:09:44.005Z,68.40
2023-01-31T01:12:11.855Z,64.85
2023-01-31T01:14:39.701Z,66.63
2023-01-31T01:17:07.664Z,68.43
2023-01-31T01:19:35.972Z,73.35
2023-01-31T01:22:06.748Z,71.70
2023-01-31T01:24:34.796Z,67.25
2023-01-31T01:27:05.243Z,64.30
2023-01-31T01:29:33.566Z,60.75
2023-01-31T01:32:02.015Z,62.28
2023-01-31T01:34:29.867Z,71.78
2023-01-31T01:36:57.649Z,65.82
2023-01-31T01:39:26.111Z,67.63
2023-01-31T01:41:54.339Z,61.83
2023-01-31T01:44:41.089Z,64.90
2023-01-31T01:47:19.380Z,60.15
2023-01-31T01:50:13.887Z,68.00
2023-01-31T01:52:45.017Z,67.85
2023-01-31T01:55:16.458Z,66.45
2023-01-31T01:57:45.498Z,63.53
2023-01-31T02:00:16.607Z,60.72
2023-01-31T02:02:45.496Z,59.85
2023-01-31T02:05:16.229Z,64.70
2023-01-31T02:07:44.650Z,63.60
2023-01-31T02:10:22.474Z,66.60
2023-01-31T02:12:50.375Z,68.80
2023-01-31T02:15:18.503Z,62.85
2023-01-31T02:17:46.659Z,70.90
2023-01-31T02:20:17.687Z,71.10
2023-01-31T02:22:57.909Z,65.00
2023-01-31T02:25:38.354Z,66.32
2023-01-31T02:28:06.621Z,70.13
2023-01-31T02:30:34.591Z,71.95
2023-01-31T02:33:02.415Z,67.70
2023-01-31T02:35:43.670Z,67.65
2023-01-31T02:38:11.470Z,73.43
2023-01-31T02:40:39.925Z,64.28
2023-01-31T02:43:12.801Z,68.10
2023-01-31T02:45:41.833Z,70.43
2023-01-31T02:48:19.088Z,72.57
2023-01-31T02:53:32.077Z,79.18
2023-01-31T02:56:35.908Z,69.18
2023-01-31T02:59:05.804Z,69.53
2023-01-31T03:01:35.382Z,79.03
2023-01-31T03:04:07.744Z,67.93
2023-01-31T03:06:36.636Z,78.38
2023-01-31T03:09:25.818Z,69.75
2023-01-31T03:12:08.998Z,70.75
2023-01-31T03:14:37.609Z,64.32
2023-01-31T03:17:33.269Z,67.00
2023-01-31T03:20:13.503Z,68.15
2023-01-31T03:22:43.690Z,66.93
2023-01-31T03:25:13.039Z,69.50
2023-01-31T03:27:44.921Z,66.30
2023-01-31T03:30:18.664Z,62.25
2023-01-31T03:32:49.876Z,58.25
2023-01-31T03:35:22.265Z,59.67
2023-01-31T03:38:00.053Z,62.33
2023-01-31T03:40:44.302Z,61.95
2023-01-31T03:43:17.382Z,61.35
2023-01-31T03:45:59.491Z,57.42
2023-01-31T03:48:29.917Z,58.90
2023-01-31T03:50:59.338Z,60.15
2023-01-31T03:53:49.368Z,57.10
2023-01-31T03:56:19.021Z,61.33
2023-01-31T03:58:50.919Z,63.40
2023-01-31T04:01:19.879Z,62.28
2023-01-31T04:03:59.047Z,66.55
2023-01-31T04:06:28.289Z,57.65
2023-01-31T04:08:56.831Z,57.17
2023-01-31T04:11:27.031Z,60.85
2023-01-31T04:13:54.947Z,57.00
2023-01-31T04:16:23.604Z,60.90
2023-01-31T04:18:51.920Z,61.10
2023-01-31T04:21:19.769Z,57.75
2023-01-31T04:23:47.560Z,57.42
2023-01-31T04:26:15.610Z,62.38
2023-01-31T04:28:43.588Z,67.35
2023-01-31T04:31:12.044Z,64.28
2023-01-31T04:33:39.979Z,61.78
2023-01-31T04:36:08.984Z,62.78
2023-01-31T04:38:37.134Z,57.40
2023-01-31T04:41:05.042Z,58.85
2023-01-31T04:43:33.208Z,64.28
2023-01-31T04:46:01.054Z,70.43
2023-01-31T04:48:29.952Z,65.45
2023-01-31T04:50:57.810Z,66.80
2023-01-31T04:53:25.656Z,62.05
2023-01-31T04:55:56.663Z,65.57
2023-01-31T04:58:24.785Z,64.10
2023-01-31T05:00:54.815Z,69.30
2023-01-31T05:03:24.428Z,72.60
2023-01-31T05:05:55.504Z,78.95
2023-01-31T05:08:33.466Z,63.85
2023-01-31T05:11:04.254Z,69.28
2023-01-31T05:13:33.027Z,83.97
2023-01-31T05:16:01.231Z,71.93
2023-01-31T05:18:29.134Z,62.53
2023-01-31T05:20:57.066Z,63.13
2023-01-31T05:23:25.317Z,68.65
2023-01-31T05:25:53.292Z,65.43
2023-01-31T05:28:21.147Z,68.70
2023-01-31T05:30:49.274Z,104.43
2023-01-31T05:33:17.359Z,234.55
2023-01-31T05:35:45.335Z,76.03
2023-01-31T05:38:13.200Z,68.03
2023-01-31T05:40:41.107Z,68.57
2023-01-31T05:43:09.213Z,66.32
2023-01-31T05:45:37.167Z,69.18
2023-01-31T05:48:05.219Z,67.72
2023-01-31T05:50:33.218Z,109.35
2023-01-31T05:53:10.043Z,124.82
2023-01-31T05:55:38.113Z,69.15
2023-01-31T05:58:06.048Z,60.17
2023-01-31T06:00:33.967Z,69.07
2023-01-31T06:03:01.910Z,69.78
2023-01-31T06:05:30.768Z,68.95
2023-01-31T06:07:59.167Z,70.63
2023-01-31T06:10:27.513Z,102.28
2023-01-31T06:12:55.322Z,73.03
2023-01-31T06:15:23.573Z,76.35
2023-01-31T06:17:51.342Z,170.40
2023-01-31T06:20:20.498Z,78.80
2023-01-31T06:22:48.696Z,62.33
2023-01-31T06:25:16.524Z,61.95
2023-01-31T06:27:44.523Z,68.00
2023-01-31T06:30:12.645Z,69.00
2023-01-31T06:32:40.502Z,64.07
2023-01-31T06:35:08.769Z,63.15
2023-01-31T06:37:36.532Z,69.88
2023-01-31T06:40:04.547Z,68.85
2023-01-31T06:42:32.795Z,65.75
2023-01-31T06:45:00.882Z,66.70
2023-01-31T06:47:28.652Z,66.85
2023-01-31T06:49:56.826Z,62.70
2023-01-31T06:52:24.725Z,62.53
2023-01-31T06:54:52.798Z,59.83
2023-01-31T06:57:20.666Z,63.80
2023-01-31T06:59:48.676Z,74.53
2023-01-31T07:02:17.209Z,71.38
2023-01-31T07:04:45.275Z,75.65
2023-01-31T07:07:21.420Z,71.47
2023-01-31T07:09:59.021Z,69.75
2023-01-31T07:12:28.763Z,73.90
2023-01-31T07:14:56.753Z,73.40
2023-01-31T07:17:24.550Z,73.32
2023-01-31T07:19:52.615Z,68.45
2023-01-31T07:22:20.484Z,71.35
2023-01-31T07:24:50.956Z,73.72
2023-01-31T07:27:19.129Z,67.90
2023-01-31T07:29:47.257Z,78.82
2023-01-31T07:32:15.077Z,79.35
2023-01-31T07:34:43.105Z,77.82
2023-01-31T07:37:10.860Z,78.70
2023-01-31T07:39:38.796Z,77.55
2023-01-31T07:42:06.615Z,84.70
2023-01-31T07:44:34.397Z,86.50
2023-01-31T07:47:02.424Z,83.18
2023-01-31T07:49:30.205Z,81.35
2023-01-31T07:51:57.996Z,91.55
2023-01-31T07:54:25.876Z,87.50
2023-01-31T07:56:53.768Z,86.18
2023-01-31T07:59:21.664Z,85.10
2023-01-31T08:02:08.035Z,84.43
2023-01-31T08:04:36.213Z,82.20
2023-01-31T08:07:05.824Z,87.35
2023-01-31T08:09:34.091Z,85.25
2023-01-31T08:12:02.090Z,89.03
2023-01-31T08:14:29.916Z,80.90
2023-01-31T08:16:57.987Z,83.38
2023-01-31T08:19:26.803Z,84.53
2023-01-31T08:21:54.967Z,89.60
2023-01-31T08:24:22.795Z,82.05
2023-01-31T08:26:51.798Z,79.18
2023-01-31T08:29:20.053Z,85.47
2023-01-31T08:31:50.362Z,80.47
2023-01-31T08:34:18.847Z,81.45
2023-01-31T08:36:46.762Z,77.10
2023-01-31T08:39:14.766Z,84.70
2023-01-31T08:41:42.845Z,84.70
2023-01-31T08:44:13.410Z,85.22
2023-01-31T08:46:41.680Z,79.93
2023-01-31T08:49:11.676Z,81.57
2023-01-31T08:51:39.602Z,78.97
2023-01-31T08:54:07.447Z,76.25
2023-01-31T08:56:35.369Z,76.85
2023-01-31T08:59:03.100Z,74.35
2023-01-31T09:01:31.556Z,74.35
2023-01-31T09:03:59.353Z,69.68
2023-01-31T09:06:27.868Z,69.85
2023-01-31T09:08:56.565Z,72.97
2023-01-31T09:11:24.550Z,74.35
2023-01-31T09:13:52.379Z,74.35
2023-01-31T09:16:21.264Z,68.70
2023-01-31T09:18:49.098Z,67.78
2023-01-31T09:21:18.169Z,69.80
2023-01-31T09:23:46.293Z,64.10
2023-01-31T09:26:14.973Z,70.25
2023-01-31T09:28:43.583Z,65.35
2023-01-31T09:31:16.050Z,64.53
2023-01-31T09:33:44.440Z,66.15
2023-01-31T09:36:14.335Z,59.50
2023-01-31T09:38:42.665Z,69.60
2023-01-31T09:41:13.659Z,64.45
2023-01-31T09:43:43.591Z,63.00
2023-01-31T09:46:15.894Z,70.72
2023-01-31T09:48:46.006Z,64.45
2023-01-31T09:51:14.320Z,73.40
2023-01-31T09:53:43.211Z,59.88
2023-01-31T09:56:11.226Z,68.43
2023-01-31T09:58:55.340Z,56.38
2023-01-31T10:01:29.791Z,58.20
2023-01-31T10:04:00.773Z,55.92
2023-01-31T10:06:44.795Z,58.63
2023-01-31T10:09:16.642Z,58.42
2023-01-31T10:11:48.279Z,56.50
2023-01-31T10:14:16.250Z,62.38
2023-01-31T10:16:46.495Z,59.15
2023-01-31T10:19:19.840Z,59.83
2023-01-31T10:24:24.092Z,54.45
2023-01-31T10:26:54.096Z,56.95
2023-01-31T10:29:29.642Z,58.78
2023-01-31T10:32:00.773Z,60.78
2023-01-31T10:34:29.068Z,57.30
2023-01-31T10:37:00.000Z,54.88
2023-01-31T10:39:36.149Z,51.50
2023-01-31T10:42:21.512Z,47.47
2023-01-31T10:45:07.811Z,53.65
2023-01-31T10:47:59.722Z,55.75
2023-01-31T10:50:46.413Z,52.60
2023-01-31T10:53:24.612Z,52.40
2023-01-31T10:55:52.456Z,58.83
2023-01-31T10:58:23.207Z,50.42
2023-01-31T11:00:51.379Z,52.60
2023-01-31T11:03:19.566Z,55.25
2023-01-31T11:05:51.557Z,56.70
2023-01-31T11:08:26.802Z,53.75
2023-01-31T11:10:55.914Z,48.08
2023-01-31T11:13:23.859Z,52.88
2023-01-31T11:15:53.376Z,52.70
2023-01-31T11:18:57.077Z,52.08
2023-01-31T11:21:29.696Z,47.95
2023-01-31T11:24:02.554Z,51.67
2023-01-31T11:26:35.239Z,50.45
2023-01-31T11:29:07.965Z,53.58
2023-01-31T11:31:39.170Z,57.47
2023-01-31T11:34:19.345Z,56.17
2023-01-31T11:36:47.424Z,60.70
2023-01-31T11:39:48.167Z,51.72
2023-01-31T11:42:17.328Z,57.85
2023-01-31T11:44:58.994Z,55.92
2023-01-31T11:47:33.223Z,57.70
2023-01-31T11:50:02.057Z,53.58
2023-01-31T11:52:32.065Z,51.60
2023-01-31T11:55:06.263Z,55.03
2023-01-31T11:57:37.951Z,53.88
2023-01-31T12:00:21.396Z,57.08
2023-01-31T12:02:52.938Z,61.30
2023-01-31T12:05:20.900Z,63.67
2023-01-31T12:07:50.288Z,54.10
2023-01-31T12:10:37.311Z,57.05
2023-01-31T12:13:18.930Z,59.65
2023-01-31T12:16:07.504Z,58.42
2023-01-31T12:18:38.779Z,57.25
2023-01-31T12:21:11.626Z,59.42
2023-01-31T12:23:46.358Z,59.53
2023-01-31T12:26:17.443Z,57.63
2023-01-31T12:28:59.600Z,60.97
2023-01-31T12:31:30.715Z,59.38
2023-01-31T12:34:17.449Z,62.33
2023-01-31T12:36:57.671Z,53.47
2023-01-31T12:39:37.240Z,54.28
2023-01-31T12:42:05.074Z,59.30
2023-01-31T12:44:50.763Z,59.80
2023-01-31T12:47:44.322Z,53.10
2023-01-31T12:50:18.445Z,48.35
2023-01-31T12:53:08.805Z,47.30
2023-01-31T12:55:41.828Z,52.33
2023-01-31T12:58:33.217Z,48.55
2023-01-31T13:01:12.843Z,47.05
2023-01-31T13:04:01.859Z,48.15
2023-01-31T13:06:35.262Z,48.88
2023-01-31T13:09:09.038Z,47.30
2023-01-31T13:11:54.239Z,45.42
2023-01-31T13:14:23.765Z,40.88
2023-01-31T13:17:02.525Z,41.30
2023-01-31T13:19:49.154Z,44.72
2023-01-31T13:22:27.347Z,36.70
2023-01-31T13:25:13.996Z,39.20
2023-01-31T13:27:44.541Z,36.45
2023-01-31T13:30:22.338Z,41.20
2023-01-31T13:32:51.668Z,36.67
2023-01-31T13:35:40.007Z,40.30
2023-01-31T13:38:09.729Z,40.08
2023-01-31T13:40:43.102Z,38.08
2023-01-31T13:43:16.046Z,37.35
2023-01-31T13:45:57.787Z,36.97
2023-01-31T13:48:34.911Z,33.33
2023-01-31T13:51:06.002Z,32.30
2023-01-31T13:53:37.025Z,38.38
2023-01-31T13:56:09.957Z,33.58
2023-01-31T13:58:38.009Z,29.70
2023-01-31T14:01:08.100Z,35.25
2023-01-31T14:03:54.850Z,34.60
2023-01-31T14:06:22.769Z,38.17
2023-01-31T14:08:50.561Z,34.38
2023-01-31T14:11:19.161Z,40.47
2023-01-31T14:13:52.463Z,36.95
2023-01-31T14:16:44.223Z,34.85
2023-01-31T14:19:21.967Z,35.78
2023-01-31T14:21:58.330Z,31.67
2023-01-31T14:24:45.242Z,37.08
2023-01-31T14:27:18.772Z,39.42
2023-01-31T14:29:47.760Z,36.88
2023-01-31T14:32:16.751Z,37.53
2023-01-31T14:34:50.894Z,35.88
2023-01-31T14:37:25.346Z,45.10
2023-01-31T14:40:09.474Z,43.97
2023-01-31T14:42:43.488Z,45.78
2023-01-31T14:45:31.548Z,43.50
2023-01-31T14:48:08.536Z,43.20
2023-01-31T14:50:36.378Z,45.15
2023-01-31T14:53:19.613Z,44.60
2023-01-31T14:55:57.682Z,37.60
2023-01-31T14:58:27.216Z,44.42
2023-01-31T15:01:01.248Z,45.85
2023-01-31T15:03:31.404Z,47.60
2023-01-31T15:06:11.444Z,43.35
2023-01-31T15:08:43.550Z,47.65
2023-01-31T15:11:40.774Z,42.88
2023-01-31T15:14:34.565Z,42.88
2023-01-31T15:19:35.319Z,42.30
2023-01-31T15:22:08.585Z,43.15
2023-01-31T15:27:07.487Z,44.08
2023-01-31T15:29:43.978Z,46.28
2023-01-31T15:32:21.426Z,52.90
2023-01-31T15:35:03.572Z,54.58
2023-01-31T15:37:33.965Z,52.03
2023-01-31T15:40:01.857Z,56.00
2023-01-31T15:42:30.682Z,54.17
2023-01-31T15:45:14.919Z,56.15
2023-01-31T15:47:42.771Z,62.80
2023-01-31T15:50:14.899Z,63.72
2023-01-31T15:52:43.048Z,58.20
2023-01-31T15:55:13.100Z,58.90
2023-01-31T15:57:48.536Z,60.90
2023-01-31T16:00:21.212Z,58.28
2023-01-31T16:02:49.192Z,62.35
2023-01-31T16:05:36.447Z,63.65
2023-01-31T16:08:28.975Z,72.22
2023-01-31T16:10:57.599Z,66.35
2023-01-31T16:13:26.981Z,64.35
2023-01-31T16:15:55.279Z,60.65
2023-01-31T16:18:23.229Z,60.92
2023-01-31T16:20:52.734Z,68.68
2023-01-31T16:23:23.597Z,60.40
2023-01-31T16:25:52.870Z,67.05
2023-01-31T16:28:20.871Z,72.78
2023-01-31T16:30:48.800Z,67.65
2023-01-31T16:33:23.306Z,60.95
2023-01-31T16:36:14.362Z,63.03
2023-01-31T16:38:43.793Z,67.10
2023-01-31T16:41:12.979Z,67.40
2023-01-31T16:43:42.258Z,72.60
2023-01-31T16:46:20.234Z,64.95
2023-01-31T16:49:09.915Z,77.32
2023-01-31T16:51:42.362Z,104.15
2023-01-31T16:54:13.221Z,76.50
2023-01-31T16:56:41.301Z,71.43
2023-01-31T16:59:36.494Z,71.25
2023-01-31T17:02:16.581Z,76.47
2023-01-31T17:05:06.635Z,71.65
2023-01-31T17:07:46.499Z,81.90
2023-01-31T17:10:21.445Z,70.95
2023-01-31T17:12:49.607Z,77.38
2023-01-31T17:15:21.225Z,79.90
2023-01-31T17:17:49.255Z,83.70
2023-01-31T17:20:18.104Z,79.65
2023-01-31T17:22:56.925Z,81.43
2023-01-31T17:25:33.065Z,86.88
2023-01-31T17:28:01.181Z,80.07
2023-01-31T17:30:39.152Z,106.05
2023-01-31T17:33:22.607Z,78.05
2023-01-31T17:38:50.539Z,79.45
2023-01-31T17:41:20.684Z,76.05
2023-01-31T17:43:48.853Z,78.65
2023-01-31T17:46:17.993Z,82.43
2023-01-31T17:48:46.027Z,83.60
2023-01-31T17:51:16.539Z,80.60
2023-01-31T17:53:50.274Z,101.85
2023-01-31T17:56:18.992Z,80.85
2023-01-31T17:58:46.962Z,82.03
2023-01-31T18:01:14.833Z,94.35
2023-01-31T18:03:43.173Z,80.40
2023-01-31T18:06:11.284Z,81.97
2023-01-31T18:08:39.330Z,80.00
2023-01-31T18:11:11.960Z,85.32
2023-01-31T18:13:39.861Z,88.57
2023-01-31T18:16:09.231Z,86.85
2023-01-31T18:18:40.613Z,90.53
2023-01-31T18:21:16.082Z,105.22
2023-01-31T18:23:44.491Z,152.93
2023-01-31T18:26:13.354Z,104.00
2023-01-31T18:28:41.299Z,114.88
2023-01-31T18:31:14.123Z,98.45
2023-01-31T18:33:43.764Z,98.15
2023-01-31T18:36:15.810Z,90.10
2023-01-31T18:38:44.449Z,87.80
2023-01-31T18:41:18.491Z,87.50
2023-01-31T18:43:47.410Z,82.32
2023-01-31T18:46:17.260Z,82.43
2023-01-31T18:48:45.358Z,87.63
2023-01-31T18:51:14.398Z,86.65
2023-01-31T18:53:43.392Z,155.65
2023-01-31T18:56:14.199Z,104.10
2023-01-31T18:58:44.664Z,92.28
2023-01-31T19:01:23.402Z,95.03
2023-01-31T19:03:53.041Z,91.40
2023-01-31T19:06:27.017Z,105.78
2023-01-31T19:08:56.485Z,104.10
2023-01-31T19:11:25.486Z,97.40
2023-01-31T19:13:53.958Z,111.53
2023-01-31T19:16:26.787Z,104.68
2023-01-31T19:18:56.167Z,95.30
2023-01-31T19:21:25.403Z,97.47
2023-01-31T19:23:55.044Z,108.80
2023-01-31T19:26:23.710Z,106.75
2023-01-31T19:28:51.849Z,101.00
2023-01-31T19:31:24.813Z,101.30
2023-01-31T19:33:56.775Z,106.80
2023-01-31T19:36:29.777Z,112.13
2023-01-31T19:38:58.775Z,120.38
2023-01-31T19:41:27.529Z,114.72
2023-01-31T19:43:56.396Z,103.38
2023-01-31T19:46:25.233Z,101.78
2023-01-31T19:48:52.996Z,114.03
2023-01-31T19:51:22.159Z,287.80
2023-01-31T19:53:50.264Z,185.73
2023-01-31T19:56:18.629Z,158.25
2023-01-31T19:58:46.652Z,100.43
2023-01-31T20:01:18.481Z,109.82
2023-01-31T20:03:46.838Z,109.60
2023-01-31T20:06:16.248Z,108.78
2023-01-31T20:08:44.142Z,95.63
2023-01-31T20:11:12.089Z,94.63
2023-01-31T20:13:40.107Z,113.10
2023-01-31T20:18:58.796Z,94.05
2023-01-31T20:21:28.794Z,148.57
2023-01-31T20:24:09.668Z,137.77
2023-01-31T20:26:37.711Z,128.63
2023-01-31T20:29:05.577Z,103.45
2023-01-31T20:32:04.727Z,96.57
2023-01-31T20:34:34.450Z,100.63
2023-01-31T20:37:02.774Z,122.20
2023-01-31T20:39:30.557Z,99.53
2023-01-31T20:41:58.400Z,129.07
2023-01-31T20:44:26.161Z,100.22
2023-01-31T20:46:54.021Z,105.28
2023-01-31T20:49:22.572Z,100.65
2023-01-31T20:51:50.594Z,101.93
2023-01-31T20:54:18.435Z,150.52
2023-01-31T20:56:46.526Z,130.60
2023-01-31T20:59:14.373Z,102.72
2023-01-31T21:01:43.360Z,109.70
2023-01-31T21:04:11.363Z,105.68
2023-01-31T21:06:39.379Z,115.50
2023-01-31T21:09:07.210Z,108.85
2023-01-31T21:11:35.114Z,101.47
2023-01-31T21:14:03.318Z,106.30
2023-01-31T21:16:34.396Z,102.25
2023-01-31T21:19:02.315Z,93.68
2023-01-31T21:21:30.253Z,108.55
2023-01-31T21:23:58.163Z,100.80
2023-01-31T21:26:27.031Z,101.65
2023-01-31T21:28:55.164Z,101.35
2023-01-31T21:31:23.155Z,120.18
2023-01-31T21:33:51.907Z,96.03
2023-01-31T21:36:24.419Z,94.22
2023-01-31T21:38:52.838Z,117.68
2023-01-31T21:41:39.252Z,99.03
2023-01-31T21:44:07.235Z,240.23
2023-01-31T21:46:35.318Z,105.78
2023-01-31T21:49:03.361Z,108.57
2023-01-31T21:51:31.543Z,96.82
2023-01-31T21:53:59.403Z,101.75
2023-01-31T21:56:29.813Z,95.28
2023-01-31T21:58:58.151Z,96.25
2023-01-31T22:01:27.665Z,96.50
2023-01-31T22:03:56.425Z,97.47
2023-01-31T22:06:26.916Z,96.63
2023-01-31T22:08:56.430Z,103.93
2023-01-31T22:11:24.495Z,92.15
2023-01-31T22:13:55.852Z,95.95
2023-01-31T22:16:24.128Z,100.32
2023-01-31T22:18:52.324Z,89.18
2023-01-31T22:21:22.105Z,93.25
2023-01-31T22:23:51.426Z,97.20
2023-01-31T22:26:22.450Z,89.95
2023-01-31T22:28:50.758Z,82.18
2023-01-31T22:31:19.176Z,89.30
2023-01-31T22:33:47.131Z,88.38
2023-01-31T22:36:15.771Z,92.38
2023-01-31T22:38:44.232Z,83.25
2023-01-31T22:41:13.732Z,82.85
2023-01-31T22:43:42.246Z,86.28
2023-01-31T22:46:12.376Z,90.30
2023-01-31T22:48:40.206Z,95.93
2023-01-31T22:51:10.945Z,93.95
2023-01-31T22:53:39.248Z,90.95
2023-01-31T22:56:18.055Z,93.85
2023-01-31T22:58:45.988Z,90.60
2023-01-31T23:01:14.072Z,86.28
2023-01-31T23:03:42.354Z,95.07
2023-01-31T23:06:11.072Z,95.18
2023-01-31T23:08:39.370Z,85.45
2023-01-31T23:11:08.625Z,94.65
2023-01-31T23:13:37.113Z,88.15
2023-01-31T23:16:05.891Z,98.93
2023-01-31T23:18:34.229Z,89.35
2023-01-31T23:21:06.539Z,84.65
2023-01-31T23:23:34.716Z,82.03
2023-01-31T23:26:02.833Z,81.10
2023-01-31T23:28:30.648Z,75.80
2023-01-31T23:30:58.641Z,77.13
2023-01-31T23:33:26.544Z,80.13
2023-01-31T23:35:54.323Z,72.70
2023-01-31T23:39:01.228Z,77.78
2023-01-31T23:41:29.060Z,79.78
2023-01-31T23:43:56.916Z,80.15
2023-01-31T23:46:24.768Z,69.30
2023-01-31T23:48:52.750Z,65.80
2023-01-31T23:51:20.514Z,65.50
2023-01-31T23:53:48.376Z,65.28
2023-01-31T23:56:16.282Z,66.25
2023-01-31T23:58:44.108Z,68.18
